sensor_id;sensor_type;location;lat;lon;timestamp;temperature;humidity
4366;DHT22;2196;47.422;9.656;2023-06-01T00:00:55;17.10;99.90
4366;DHT22;2196;47.422;9.656;2023-06-01T00:03:22;17.10;99.90
4366;DHT22;2196;47.422;9.656;2023-06-01T00:05:50;16.90;99.90
4366;DHT22;2196;47.422;9.656;2023-06-01T00:08:19;16.80;99.90
4366;DHT22;2196;47.422;9.656;2023-06-01T00:10:48;16.70;99.90
4366;DHT22;2196;47.422;9.656;2023-06-01T00:13:15;16.70;99.90
4366;DHT22;2196;47.422;9.656;2023-06-01T00:15:42;16.60;99.90
4366;DHT22;2196;47.422;9.656;2023-06-01T00:18:10;16.60;99.90
4366;DHT22;2196;47.422;9.656;2023-06-01T00:20:38;16.50;99.90
4366;DHT22;2196;47.422;9.656;2023-06-01T00:23:05;16.50;99.90
4366;DHT22;2196;47.422;9.656;2023-06-01T00:25:35;16.50;99.90
4366;DHT22;2196;47.422;9.656;2023-06-01T00:28:02;16.50;99.90
4366;DHT22;2196;47.422;9.656;2023-06-01T00:30:29;16.40;99.90
4366;DHT22;2196;47.422;9.656;2023-06-01T00:32:56;16.40;99.90
4366;DHT22;2196;47.422;9.656;2023-06-01T00:35:23;16.40;99.90
4366;DHT22;2196;47.422;9.656;2023-06-01T00:37:50;16.40;99.90
4366;DHT22;2196;47.422;9.656;2023-06-01T00:40:17;16.30;99.90
4366;DHT22;2196;47.422;9.656;2023-06-01T00:42:45;16.30;99.90
4366;DHT22;2196;47.422;9.656;2023-06-01T00:45:12;16.30;99.90
4366;DHT22;2196;47.422;9.656;2023-06-01T00:47:40;16.30;99.90
4366;DHT22;2196;47.422;9.656;2023-06-01T00:50:09;16.30;99.90
4366;DHT22;2196;47.422;9.656;2023-06-01T00:52:37;16.30;99.90
4366;DHT22;2196;47.422;9.656;2023-06-01T00:55:05;16.20;99.90
4366;DHT22;2196;47.422;9.656;2023-06-01T00:57:34;16.20;99.90
4366;DHT22;2196;47.422;9.656;2023-06-01T01:00:03;16.20;99.90
4366;DHT22;2196;47.422;9.656;2023-06-01T01:02:36;16.10;99.90
4366;DHT22;2196;47.422;9.656;2023-06-01T01:05:04;16.10;99.90
4366;DHT22;2196;47.422;9.656;2023-06-01T01:07:42;16.10;99.90
4366;DHT22;2196;47.422;9.656;2023-06-01T01:10:17;16.10;99.90
4366;DHT22;2196;47.422;9.656;2023-06-01T01:12:52;16.00;99.90
4366;DHT22;2196;47.422;9.656;2023-06-01T01:15:27;16.00;99.90
4366;DHT22;2196;47.422;9.656;2023-06-01T01:18:00;15.90;99.90
4366;DHT22;2196;47.422;9.656;2023-06-01T01:20:33;15.90;99.90
4366;DHT22;2196;47.422;9.656;2023-06-01T01:23:15;15.80;99.90
4366;DHT22;2196;47.422;9.656;2023-06-01T01:26:08;15.80;99.90
4366;DHT22;2196;47.422;9.656;2023-06-01T01:28:40;15.70;99.90
4366;DHT22;2196;47.422;9.656;2023-06-01T01:31:09;15.70;99.90
4366;DHT22;2196;47.422;9.656;2023-06-01T01:33:38;15.70;99.90
4366;DHT22;2196;47.422;9.656;2023-06-01T01:36:07;15.60;99.90
4366;DHT22;2196;47.422;9.656;2023-06-01T01:38:36;15.60;99.90
4366;DHT22;2196;47.422;9.656;2023-06-01T01:41:03;15.60;99.90
4366;DHT22;2196;47.422;9.656;2023-06-01T01:43:30;15.50;99.90
4366;DHT22;2196;47.422;9.656;2023-06-01T01:46:06;15.40;99.90
4366;DHT22;2196;47.422;9.656;2023-06-01T01:48:39;15.40;99.90
4366;DHT22;2196;47.422;9.656;2023-06-01T01:51:13;15.40;99.90
4366;DHT22;2196;47.422;9.656;2023-06-01T01:53:44;15.40;99.90
4366;DHT22;2196;47.422;9.656;2023-06-01T01:56:13;15.40;99.90
4366;DHT22;2196;47.422;9.656;2023-06-01T01:58:41;15.40;99.90
4366;DHT22;2196;47.422;9.656;2023-06-01T02:01:13;15.40;99.90
4366;DHT22;2196;47.422;9.656;2023-06-01T02:03:41;15.30;99.90
4366;DHT22;2196;47.422;9.656;2023-06-01T02:06:13;15.30;99.90
4366;DHT22;2196;47.422;9.656;2023-06-01T02:08:40;15.40;99.90
4366;DHT22;2196;47.422;9.656;2023-06-01T02:11:07;15.40;99.90
4366;DHT22;2196;47.422;9.656;2023-06-01T02:13:35;15.40;99.90
4366;DHT22;2196;47.422;9.656;2023-06-01T02:16:02;15.30;99.90
4366;DHT22;2196;47.422;9.656;2023-06-01T02:18:30;15.30;99.90
4366;DHT22;2196;47.422;9.656;2023-06-01T02:20:57;15.30;99.90
4366;DHT22;2196;47.422;9.656;2023-06-01T02:23:24;15.30;99.90
4366;DHT22;2196;47.422;9.656;2023-06-01T02:25:51;15.20;99.90
4366;DHT22;2196;47.422;9.656;2023-06-01T02:28:18;15.20;99.90
4366;DHT22;2196;47.422;9.656;2023-06-01T02:30:45;15.20;99.90
4366;DHT22;2196;47.422;9.656;2023-06-01T02:33:12;15.20;99.90
4366;DHT22;2196;47.422;9.656;2023-06-01T02:35:41;15.20;99.90
4366;DHT22;2196;47.422;9.656;2023-06-01T02:38:08;15.10;99.90
4366;DHT22;2196;47.422;9.656;2023-06-01T02:40:35;15.10;99.90
4366;DHT22;2196;47.422;9.656;2023-06-01T02:43:02;15.00;99.90
4366;DHT22;2196;47.422;9.656;2023-06-01T02:45:29;15.00;99.90
4366;DHT22;2196;47.422;9.656;2023-06-01T02:47:56;15.00;99.90
4366;DHT22;2196;47.422;9.656;2023-06-01T02:50:23;14.90;99.90
4366;DHT22;2196;47.422;9.656;2023-06-01T02:52:52;14.90;99.90
4366;DHT22;2196;47.422;9.656;2023-06-01T02:55:18;14.90;99.90
4366;DHT22;2196;47.422;9.656;2023-06-01T02:57:45;14.90;99.90
4366;DHT22;2196;47.422;9.656;2023-06-01T03:00:13;14.90;99.90
4366;DHT22;2196;47.422;9.656;2023-06-01T03:02:43;14.80;99.90
4366;DHT22;2196;47.422;9.656;2023-06-01T03:05:10;14.80;99.90
4366;DHT22;2196;47.422;9.656;2023-06-01T03:07:40;14.80;99.90
4366;DHT22;2196;47.422;9.656;2023-06-01T03:10:08;14.70;99.90
4366;DHT22;2196;47.422;9.656;2023-06-01T03:12:35;14.70;99.90
4366;DHT22;2196;47.422;9.656;2023-06-01T03:15:03;14.60;99.90
4366;DHT22;2196;47.422;9.656;2023-06-01T03:17:31;14.60;99.90
4366;DHT22;2196;47.422;9.656;2023-06-01T03:19:58;14.60;99.90
4366;DHT22;2196;47.422;9.656;2023-06-01T03:22:26;14.50;99.90
4366;DHT22;2196;47.422;9.656;2023-06-01T03:24:53;14.50;99.90
4366;DHT22;2196;47.422;9.656;2023-06-01T03:27:21;14.60;99.90
4366;DHT22;2196;47.422;9.656;2023-06-01T03:29:48;14.50;99.90
4366;DHT22;2196;47.422;9.656;2023-06-01T03:32:15;14.60;99.90
4366;DHT22;2196;47.422;9.656;2023-06-01T03:34:42;14.60;99.90
4366;DHT22;2196;47.422;9.656;2023-06-01T03:37:10;14.60;99.90
4366;DHT22;2196;47.422;9.656;2023-06-01T03:39:37;14.60;99.90
4366;DHT22;2196;47.422;9.656;2023-06-01T03:42:08;14.60;99.90
4366;DHT22;2196;47.422;9.656;2023-06-01T03:44:36;14.50;99.90
4366;DHT22;2196;47.422;9.656;2023-06-01T03:47:03;14.60;99.90
4366;DHT22;2196;47.422;9.656;2023-06-01T03:49:31;14.60;99.90
4366;DHT22;2196;47.422;9.656;2023-06-01T03:51:58;14.70;99.90
4366;DHT22;2196;47.422;9.656;2023-06-01T03:54:25;14.70;99.90
4366;DHT22;2196;47.422;9.656;2023-06-01T03:56:52;14.70;99.90
4366;DHT22;2196;47.422;9.656;2023-06-01T03:59:19;14.70;99.90
4366;DHT22;2196;47.422;9.656;2023-06-01T04:01:47;14.80;99.90
4366;DHT22;2196;47.422;9.656;2023-06-01T04:04:15;14.90;99.90
4366;DHT22;2196;47.422;9.656;2023-06-01T04:06:43;14.90;99.90
4366;DHT22;2196;47.422;9.656;2023-06-01T04:09:11;14.90;99.90
4366;DHT22;2196;47.422;9.656;2023-06-01T04:11:40;15.00;99.90
4366;DHT22;2196;47.422;9.656;2023-06-01T04:14:07;15.00;99.90
4366;DHT22;2196;47.422;9.656;2023-06-01T04:16:34;15.00;99.90
4366;DHT22;2196;47.422;9.656;2023-06-01T04:19:02;15.10;99.90
4366;DHT22;2196;47.422;9.656;2023-06-01T04:21:29;15.00;99.90
4366;DHT22;2196;47.422;9.656;2023-06-01T04:23:57;15.00;99.90
4366;DHT22;2196;47.422;9.656;2023-06-01T04:26:24;15.00;99.90
4366;DHT22;2196;47.422;9.656;2023-06-01T04:28:53;15.00;99.90
4366;DHT22;2196;47.422;9.656;2023-06-01T04:31:22;15.00;99.90
4366;DHT22;2196;47.422;9.656;2023-06-01T04:33:49;15.10;99.90
4366;DHT22;2196;47.422;9.656;2023-06-01T04:36:20;15.10;99.90
4366;DHT22;2196;47.422;9.656;2023-06-01T04:38:48;15.20;99.90
4366;DHT22;2196;47.422;9.656;2023-06-01T04:41:18;15.40;99.90
4366;DHT22;2196;47.422;9.656;2023-06-01T04:43:46;15.60;99.90
4366;DHT22;2196;47.422;9.656;2023-06-01T04:46:17;15.70;99.90
4366;DHT22;2196;47.422;9.656;2023-06-01T04:48:45;15.90;99.90
4366;DHT22;2196;47.422;9.656;2023-06-01T04:51:12;16.10;99.90
4366;DHT22;2196;47.422;9.656;2023-06-01T04:53:45;16.20;99.90
4366;DHT22;2196;47.422;9.656;2023-06-01T04:56:16;16.30;99.90
4366;DHT22;2196;47.422;9.656;2023-06-01T04:58:44;16.40;99.90
4366;DHT22;2196;47.422;9.656;2023-06-01T05:01:13;16.50;99.90
4366;DHT22;2196;47.422;9.656;2023-06-01T05:03:42;16.50;99.90
4366;DHT22;2196;47.422;9.656;2023-06-01T05:06:10;16.70;99.90
4366;DHT22;2196;47.422;9.656;2023-06-01T05:08:38;16.90;99.90
4366;DHT22;2196;47.422;9.656;2023-06-01T05:11:07;17.10;99.90
4366;DHT22;2196;47.422;9.656;2023-06-01T05:13:34;17.60;99.90
4366;DHT22;2196;47.422;9.656;2023-06-01T05:16:02;18.40;99.90
4366;DHT22;2196;47.422;9.656;2023-06-01T05:18:29;19.20;99.90
4366;DHT22;2196;47.422;9.656;2023-06-01T05:20:56;20.20;99.90
4366;DHT22;2196;47.422;9.656;2023-06-01T05:23:24;20.60;99.90
4366;DHT22;2196;47.422;9.656;2023-06-01T05:25:51;21.30;99.90
4366;DHT22;2196;47.422;9.656;2023-06-01T05:28:19;21.90;99.90
4366;DHT22;2196;47.422;9.656;2023-06-01T05:30:47;22.00;99.90
4366;DHT22;2196;47.422;9.656;2023-06-01T05:33:14;22.60;99.90
4366;DHT22;2196;47.422;9.656;2023-06-01T05:35:41;23.00;99.90
4366;DHT22;2196;47.422;9.656;2023-06-01T05:38:08;23.30;99.90
4366;DHT22;2196;47.422;9.656;2023-06-01T05:40:35;23.30;99.90
4366;DHT22;2196;47.422;9.656;2023-06-01T05:43:02;24.10;99.90
4366;DHT22;2196;47.422;9.656;2023-06-01T05:45:30;24.20;99.90
4366;DHT22;2196;47.422;9.656;2023-06-01T05:47:57;24.30;99.90
4366;DHT22;2196;47.422;9.656;2023-06-01T05:50:24;24.70;99.90
4366;DHT22;2196;47.422;9.656;2023-06-01T05:52:51;24.90;99.90
4366;DHT22;2196;47.422;9.656;2023-06-01T05:55:19;25.40;99.90
4366;DHT22;2196;47.422;9.656;2023-06-01T05:57:46;26.00;99.90
4366;DHT22;2196;47.422;9.656;2023-06-01T06:00:14;26.00;99.90
4366;DHT22;2196;47.422;9.656;2023-06-01T06:02:43;26.40;99.90
4366;DHT22;2196;47.422;9.656;2023-06-01T06:05:11;26.60;99.90
4366;DHT22;2196;47.422;9.656;2023-06-01T06:07:39;26.50;99.90
4366;DHT22;2196;47.422;9.656;2023-06-01T06:10:07;25.90;99.90
4366;DHT22;2196;47.422;9.656;2023-06-01T06:12:34;26.10;99.90
4366;DHT22;2196;47.422;9.656;2023-06-01T06:15:01;26.50;99.90
4366;DHT22;2196;47.422;9.656;2023-06-01T06:17:29;26.00;99.90
4366;DHT22;2196;47.422;9.656;2023-06-01T06:19:58;24.90;99.90
4366;DHT22;2196;47.422;9.656;2023-06-01T06:22:25;25.00;99.90
4366;DHT22;2196;47.422;9.656;2023-06-01T06:24:52;25.50;99.90
4366;DHT22;2196;47.422;9.656;2023-06-01T06:27:19;25.70;99.90
4366;DHT22;2196;47.422;9.656;2023-06-01T06:29:46;26.50;99.90
4366;DHT22;2196;47.422;9.656;2023-06-01T06:32:13;27.00;99.90
4366;DHT22;2196;47.422;9.656;2023-06-01T06:34:40;27.30;99.90
4366;DHT22;2196;47.422;9.656;2023-06-01T06:37:09;27.70;99.70
4366;DHT22;2196;47.422;9.656;2023-06-01T06:39:37;28.00;98.90
4366;DHT22;2196;47.422;9.656;2023-06-01T06:42:05;27.80;99.90
4366;DHT22;2196;47.422;9.656;2023-06-01T06:44:32;27.50;99.90
4366;DHT22;2196;47.422;9.656;2023-06-01T06:46:59;28.50;97.90
4366;DHT22;2196;47.422;9.656;2023-06-01T06:49:27;27.90;97.10
4366;DHT22;2196;47.422;9.656;2023-06-01T06:51:54;27.20;98.70
4366;DHT22;2196;47.422;9.656;2023-06-01T06:54:22;26.70;99.30
4366;DHT22;2196;47.422;9.656;2023-06-01T06:56:49;27.30;99.00
4366;DHT22;2196;47.422;9.656;2023-06-01T06:59:17;27.80;97.90
4366;DHT22;2196;47.422;9.656;2023-06-01T07:01:44;28.60;97.20
4366;DHT22;2196;47.422;9.656;2023-06-01T07:04:11;28.50;96.80
4366;DHT22;2196;47.422;9.656;2023-06-01T07:06:38;28.90;96.40
4366;DHT22;2196;47.422;9.656;2023-06-01T07:09:05;29.00;96.00
4366;DHT22;2196;47.422;9.656;2023-06-01T07:11:34;29.00;95.70
4366;DHT22;2196;47.422;9.656;2023-06-01T07:14:01;29.50;96.20
4366;DHT22;2196;47.422;9.656;2023-06-01T07:16:28;29.30;95.20
4366;DHT22;2196;47.422;9.656;2023-06-01T07:18:56;29.00;96.60
4366;DHT22;2196;47.422;9.656;2023-06-01T07:21:23;29.00;96.00
4366;DHT22;2196;47.422;9.656;2023-06-01T07:23:50;29.30;93.90
4366;DHT22;2196;47.422;9.656;2023-06-01T07:26:17;29.30;94.60
4366;DHT22;2196;47.422;9.656;2023-06-01T07:28:45;28.90;94.20
4366;DHT22;2196;47.422;9.656;2023-06-01T07:31:14;28.30;95.60
4366;DHT22;2196;47.422;9.656;2023-06-01T07:33:41;28.80;94.60
4366;DHT22;2196;47.422;9.656;2023-06-01T07:36:08;29.10;94.40
4366;DHT22;2196;47.422;9.656;2023-06-01T07:38:35;29.20;94.50
4366;DHT22;2196;47.422;9.656;2023-06-01T07:41:02;28.70;94.20
4366;DHT22;2196;47.422;9.656;2023-06-01T07:43:29;29.30;94.50
4366;DHT22;2196;47.422;9.656;2023-06-01T07:45:57;29.40;94.20
4366;DHT22;2196;47.422;9.656;2023-06-01T07:48:25;29.90;93.00
4366;DHT22;2196;47.422;9.656;2023-06-01T07:50:51;29.70;93.20
4366;DHT22;2196;47.422;9.656;2023-06-01T07:53:20;28.80;93.30
4366;DHT22;2196;47.422;9.656;2023-06-01T07:55:47;28.70;95.00
4366;DHT22;2196;47.422;9.656;2023-06-01T07:58:15;27.90;94.70
4366;DHT22;2196;47.422;9.656;2023-06-01T08:00:42;27.60;94.90
4366;DHT22;2196;47.422;9.656;2023-06-01T08:03:11;26.90;96.10
4366;DHT22;2196;47.422;9.656;2023-06-01T08:05:40;26.50;96.80
4366;DHT22;2196;47.422;9.656;2023-06-01T08:08:08;26.70;96.90
4366;DHT22;2196;47.422;9.656;2023-06-01T08:10:36;27.20;96.40
4366;DHT22;2196;47.422;9.656;2023-06-01T08:13:04;27.30;96.90
4366;DHT22;2196;47.422;9.656;2023-06-01T08:15:33;27.80;95.40
4366;DHT22;2196;47.422;9.656;2023-06-01T08:18:02;27.90;94.90
4366;DHT22;2196;47.422;9.656;2023-06-01T08:20:31;28.20;94.10
4366;DHT22;2196;47.422;9.656;2023-06-01T08:22:59;28.10;95.20
4366;DHT22;2196;47.422;9.656;2023-06-01T08:25:27;28.00;94.30
4366;DHT22;2196;47.422;9.656;2023-06-01T08:27:54;27.70;96.90
4366;DHT22;2196;47.422;9.656;2023-06-01T08:30:21;27.70;94.80
4366;DHT22;2196;47.422;9.656;2023-06-01T08:32:48;28.10;94.30
4366;DHT22;2196;47.422;9.656;2023-06-01T08:35:16;28.40;95.00
4366;DHT22;2196;47.422;9.656;2023-06-01T08:37:47;28.30;95.40
4366;DHT22;2196;47.422;9.656;2023-06-01T08:40:14;28.10;95.60
4366;DHT22;2196;47.422;9.656;2023-06-01T08:42:46;28.00;95.30
4366;DHT22;2196;47.422;9.656;2023-06-01T08:45:17;27.90;95.90
4366;DHT22;2196;47.422;9.656;2023-06-01T08:47:45;27.60;94.90
4366;DHT22;2196;47.422;9.656;2023-06-01T08:50:14;27.70;95.40
4366;DHT22;2196;47.422;9.656;2023-06-01T08:52:45;27.30;96.50
4366;DHT22;2196;47.422;9.656;2023-06-01T08:55:13;27.70;94.60
4366;DHT22;2196;47.422;9.656;2023-06-01T08:57:41;28.20;96.40
4366;DHT22;2196;47.422;9.656;2023-06-01T09:00:10;28.10;94.10
4366;DHT22;2196;47.422;9.656;2023-06-01T09:02:37;28.30;94.20
4366;DHT22;2196;47.422;9.656;2023-06-01T09:05:06;28.80;95.40
4366;DHT22;2196;47.422;9.656;2023-06-01T09:07:33;28.30;94.50
4366;DHT22;2196;47.422;9.656;2023-06-01T09:10:02;28.90;93.80
4366;DHT22;2196;47.422;9.656;2023-06-01T09:12:30;29.10;94.10
4366;DHT22;2196;47.422;9.656;2023-06-01T09:15:16;29.20;92.60
4366;DHT22;2196;47.422;9.656;2023-06-01T09:17:45;29.30;93.40
4366;DHT22;2196;47.422;9.656;2023-06-01T09:20:14;29.80;93.30
4366;DHT22;2196;47.422;9.656;2023-06-01T09:22:43;29.30;94.40
4366;DHT22;2196;47.422;9.656;2023-06-01T09:25:13;29.40;94.00
4366;DHT22;2196;47.422;9.656;2023-06-01T09:27:45;29.20;93.80
4366;DHT22;2196;47.422;9.656;2023-06-01T09:30:13;29.20;94.50
4366;DHT22;2196;47.422;9.656;2023-06-01T09:32:40;28.90;94.80
4366;DHT22;2196;47.422;9.656;2023-06-01T09:35:08;29.20;94.40
4366;DHT22;2196;47.422;9.656;2023-06-01T09:37:37;28.90;95.50
4366;DHT22;2196;47.422;9.656;2023-06-01T09:40:18;29.70;93.20
4366;DHT22;2196;47.422;9.656;2023-06-01T09:42:45;30.40;92.40
4366;DHT22;2196;47.422;9.656;2023-06-01T09:45:18;29.80;93.40
4366;DHT22;2196;47.422;9.656;2023-06-01T09:47:45;29.00;93.90
4366;DHT22;2196;47.422;9.656;2023-06-01T09:50:32;28.80;93.10
4366;DHT22;2196;47.422;9.656;2023-06-01T09:52:59;28.70;94.40
4366;DHT22;2196;47.422;9.656;2023-06-01T09:55:28;28.70;93.80
4366;DHT22;2196;47.422;9.656;2023-06-01T09:58:19;29.10;94.30
4366;DHT22;2196;47.422;9.656;2023-06-01T10:00:47;28.90;94.00
4366;DHT22;2196;47.422;9.656;2023-06-01T10:03:15;28.70;96.10
4366;DHT22;2196;47.422;9.656;2023-06-01T10:05:43;28.90;93.70
4366;DHT22;2196;47.422;9.656;2023-06-01T10:08:11;28.00;94.00
4366;DHT22;2196;47.422;9.656;2023-06-01T10:10:42;27.70;94.90
4366;DHT22;2196;47.422;9.656;2023-06-01T10:13:10;26.70;95.20
4366;DHT22;2196;47.422;9.656;2023-06-01T10:15:37;27.20;95.50
4366;DHT22;2196;47.422;9.656;2023-06-01T10:18:05;27.80;94.90
4366;DHT22;2196;47.422;9.656;2023-06-01T10:20:33;27.90;93.50
4366;DHT22;2196;47.422;9.656;2023-06-01T10:23:01;28.20;94.00
4366;DHT22;2196;47.422;9.656;2023-06-01T10:25:31;27.90;94.60
4366;DHT22;2196;47.422;9.656;2023-06-01T10:28:04;27.60;93.30
4366;DHT22;2196;47.422;9.656;2023-06-01T10:30:33;27.50;94.20
4366;DHT22;2196;47.422;9.656;2023-06-01T10:33:00;27.40;93.30
4366;DHT22;2196;47.422;9.656;2023-06-01T10:35:51;27.90;94.70
4366;DHT22;2196;47.422;9.656;2023-06-01T10:38:23;27.90;93.70
4366;DHT22;2196;47.422;9.656;2023-06-01T10:40:50;28.00;92.70
4366;DHT22;2196;47.422;9.656;2023-06-01T10:43:41;28.30;94.00
4366;DHT22;2196;47.422;9.656;2023-06-01T10:46:38;28.90;90.80
4366;DHT22;2196;47.422;9.656;2023-06-01T10:49:06;29.00;91.90
4366;DHT22;2196;47.422;9.656;2023-06-01T10:51:33;28.80;91.80
4366;DHT22;2196;47.422;9.656;2023-06-01T10:57:23;28.70;90.80
4366;DHT22;2196;47.422;9.656;2023-06-01T11:00:15;28.20;94.00
4366;DHT22;2196;47.422;9.656;2023-06-01T11:02:50;28.00;93.20
4366;DHT22;2196;47.422;9.656;2023-06-01T11:05:40;27.90;93.90
4366;DHT22;2196;47.422;9.656;2023-06-01T11:11:14;26.80;94.80
4366;DHT22;2196;47.422;9.656;2023-06-01T11:13:42;26.60;95.20
4366;DHT22;2196;47.422;9.656;2023-06-01T11:16:30;26.30;95.40
4366;DHT22;2196;47.422;9.656;2023-06-01T11:18:59;26.10;95.00
4366;DHT22;2196;47.422;9.656;2023-06-01T11:21:29;26.00;95.80
4366;DHT22;2196;47.422;9.656;2023-06-01T11:23:58;26.00;98.10
4366;DHT22;2196;47.422;9.656;2023-06-01T11:26:30;25.90;96.10
4366;DHT22;2196;47.422;9.656;2023-06-01T11:29:05;25.90;96.70
4366;DHT22;2196;47.422;9.656;2023-06-01T11:31:36;25.80;97.30
4366;DHT22;2196;47.422;9.656;2023-06-01T11:34:04;25.60;97.00
4366;DHT22;2196;47.422;9.656;2023-06-01T11:36:36;25.50;98.20
4366;DHT22;2196;47.422;9.656;2023-06-01T11:39:04;25.80;96.30
4366;DHT22;2196;47.422;9.656;2023-06-01T11:41:36;25.70;96.70
4366;DHT22;2196;47.422;9.656;2023-06-01T11:44:03;25.60;96.20
4366;DHT22;2196;47.422;9.656;2023-06-01T11:46:30;25.80;99.00
4366;DHT22;2196;47.422;9.656;2023-06-01T11:49:02;26.00;98.30
4366;DHT22;2196;47.422;9.656;2023-06-01T11:51:31;25.80;97.70
4366;DHT22;2196;47.422;9.656;2023-06-01T11:54:00;25.80;99.00
4366;DHT22;2196;47.422;9.656;2023-06-01T11:56:30;25.90;98.50
4366;DHT22;2196;47.422;9.656;2023-06-01T11:58:58;25.90;98.70
4366;DHT22;2196;47.422;9.656;2023-06-01T12:01:26;25.90;97.70
4366;DHT22;2196;47.422;9.656;2023-06-01T12:03:53;25.80;96.80
4366;DHT22;2196;47.422;9.656;2023-06-01T12:06:24;25.80;98.00
4366;DHT22;2196;47.422;9.656;2023-06-01T12:08:52;26.00;97.10
4366;DHT22;2196;47.422;9.656;2023-06-01T12:11:20;26.10;97.40
4366;DHT22;2196;47.422;9.656;2023-06-01T12:13:49;26.20;97.10
4366;DHT22;2196;47.422;9.656;2023-06-01T12:16:16;26.10;97.40
4366;DHT22;2196;47.422;9.656;2023-06-01T12:18:43;25.90;95.80
4366;DHT22;2196;47.422;9.656;2023-06-01T12:21:11;25.80;96.20
4366;DHT22;2196;47.422;9.656;2023-06-01T12:23:40;25.80;97.00
4366;DHT22;2196;47.422;9.656;2023-06-01T12:26:07;25.90;97.50
4366;DHT22;2196;47.422;9.656;2023-06-01T12:28:50;25.90;98.80
4366;DHT22;2196;47.422;9.656;2023-06-01T12:31:19;26.00;97.20
4366;DHT22;2196;47.422;9.656;2023-06-01T12:33:47;26.10;98.20
4366;DHT22;2196;47.422;9.656;2023-06-01T12:36:31;26.20;97.90
4366;DHT22;2196;47.422;9.656;2023-06-01T12:39:02;26.30;96.40
4366;DHT22;2196;47.422;9.656;2023-06-01T12:41:30;26.40;96.20
4366;DHT22;2196;47.422;9.656;2023-06-01T12:43:58;26.30;96.10
4366;DHT22;2196;47.422;9.656;2023-06-01T12:46:27;26.30;96.20
4366;DHT22;2196;47.422;9.656;2023-06-01T12:49:10;26.10;95.70
4366;DHT22;2196;47.422;9.656;2023-06-01T12:51:38;26.10;97.30
4366;DHT22;2196;47.422;9.656;2023-06-01T12:54:06;26.00;96.50
4366;DHT22;2196;47.422;9.656;2023-06-01T12:56:33;26.00;96.40
4366;DHT22;2196;47.422;9.656;2023-06-01T12:59:00;26.00;95.30
4366;DHT22;2196;47.422;9.656;2023-06-01T13:01:27;26.10;95.90
4366;DHT22;2196;47.422;9.656;2023-06-01T13:03:54;26.20;95.70
4366;DHT22;2196;47.422;9.656;2023-06-01T13:06:21;26.20;95.60
4366;DHT22;2196;47.422;9.656;2023-06-01T13:08:48;26.30;95.40
4366;DHT22;2196;47.422;9.656;2023-06-01T13:11:16;26.20;95.70
4366;DHT22;2196;47.422;9.656;2023-06-01T13:13:43;26.10;93.80
4366;DHT22;2196;47.422;9.656;2023-06-01T13:16:11;26.20;96.00
4366;DHT22;2196;47.422;9.656;2023-06-01T13:18:38;26.40;95.40
4366;DHT22;2196;47.422;9.656;2023-06-01T13:21:04;26.40;94.30
4366;DHT22;2196;47.422;9.656;2023-06-01T13:23:31;26.30;94.70
4366;DHT22;2196;47.422;9.656;2023-06-01T13:25:58;26.20;93.70
4366;DHT22;2196;47.422;9.656;2023-06-01T13:28:27;26.20;92.80
4366;DHT22;2196;47.422;9.656;2023-06-01T13:30:54;26.40;93.40
4366;DHT22;2196;47.422;9.656;2023-06-01T13:33:21;26.60;93.70
4366;DHT22;2196;47.422;9.656;2023-06-01T13:35:48;26.80;93.80
4366;DHT22;2196;47.422;9.656;2023-06-01T13:38:15;27.00;94.70
4366;DHT22;2196;47.422;9.656;2023-06-01T13:40:42;27.20;91.10
4366;DHT22;2196;47.422;9.656;2023-06-01T13:43:09;27.30;91.30
4366;DHT22;2196;47.422;9.656;2023-06-01T13:45:38;27.40;93.10
4366;DHT22;2196;47.422;9.656;2023-06-01T13:48:05;27.40;92.90
4366;DHT22;2196;47.422;9.656;2023-06-01T13:50:32;27.40;92.90
4366;DHT22;2196;47.422;9.656;2023-06-01T13:52:59;27.50;90.90
4366;DHT22;2196;47.422;9.656;2023-06-01T13:55:30;27.50;90.40
4366;DHT22;2196;47.422;9.656;2023-06-01T13:57:57;27.40;90.70
4366;DHT22;2196;47.422;9.656;2023-06-01T14:00:24;27.40;91.40
4366;DHT22;2196;47.422;9.656;2023-06-01T14:02:54;27.30;91.00
4366;DHT22;2196;47.422;9.656;2023-06-01T14:05:21;27.30;91.00
4366;DHT22;2196;47.422;9.656;2023-06-01T14:07:48;27.20;92.90
4366;DHT22;2196;47.422;9.656;2023-06-01T14:10:15;27.30;95.10
4366;DHT22;2196;47.422;9.656;2023-06-01T14:12:42;27.50;92.90
4366;DHT22;2196;47.422;9.656;2023-06-01T14:15:10;27.50;93.50
4366;DHT22;2196;47.422;9.656;2023-06-01T14:17:37;27.50;91.80
4366;DHT22;2196;47.422;9.656;2023-06-01T14:20:06;27.50;91.00
4366;DHT22;2196;47.422;9.656;2023-06-01T14:22:33;27.50;91.80
4366;DHT22;2196;47.422;9.656;2023-06-01T14:25:00;27.40;93.20
4366;DHT22;2196;47.422;9.656;2023-06-01T14:27:27;27.30;93.10
4366;DHT22;2196;47.422;9.656;2023-06-01T14:29:54;27.20;91.60
4366;DHT22;2196;47.422;9.656;2023-06-01T14:32:21;27.20;95.00
4366;DHT22;2196;47.422;9.656;2023-06-01T14:34:48;27.20;96.00
4366;DHT22;2196;47.422;9.656;2023-06-01T14:37:17;27.10;93.10
4366;DHT22;2196;47.422;9.656;2023-06-01T14:39:44;26.70;91.60
4366;DHT22;2196;47.422;9.656;2023-06-01T14:42:11;26.50;93.70
4366;DHT22;2196;47.422;9.656;2023-06-01T14:44:38;26.50;94.50
4366;DHT22;2196;47.422;9.656;2023-06-01T14:47:05;26.40;93.40
4366;DHT22;2196;47.422;9.656;2023-06-01T14:49:32;26.40;92.40
4366;DHT22;2196;47.422;9.656;2023-06-01T14:51:59;26.40;94.10
4366;DHT22;2196;47.422;9.656;2023-06-01T14:54:27;26.30;95.50
4366;DHT22;2196;47.422;9.656;2023-06-01T14:56:54;26.00;96.50
4366;DHT22;2196;47.422;9.656;2023-06-01T14:59:22;25.70;97.00
4366;DHT22;2196;47.422;9.656;2023-06-01T15:01:49;25.40;97.80
4366;DHT22;2196;47.422;9.656;2023-06-01T15:04:16;25.20;98.30
4366;DHT22;2196;47.422;9.656;2023-06-01T15:06:43;25.10;98.70
4366;DHT22;2196;47.422;9.656;2023-06-01T15:09:11;24.90;98.90
4366;DHT22;2196;47.422;9.656;2023-06-01T15:11:39;24.90;98.70
4366;DHT22;2196;47.422;9.656;2023-06-01T15:14:06;24.80;97.80
4366;DHT22;2196;47.422;9.656;2023-06-01T15:16:33;24.70;98.20
4366;DHT22;2196;47.422;9.656;2023-06-01T15:19:00;24.70;98.10
4366;DHT22;2196;47.422;9.656;2023-06-01T15:21:27;24.70;98.30
4366;DHT22;2196;47.422;9.656;2023-06-01T15:23:54;24.60;97.90
4366;DHT22;2196;47.422;9.656;2023-06-01T15:26:21;24.50;98.10
4366;DHT22;2196;47.422;9.656;2023-06-01T15:28:49;24.30;98.50
4366;DHT22;2196;47.422;9.656;2023-06-01T15:31:16;24.20;98.80
4366;DHT22;2196;47.422;9.656;2023-06-01T15:33:43;24.00;98.30
4366;DHT22;2196;47.422;9.656;2023-06-01T15:36:10;23.90;97.90
4366;DHT22;2196;47.422;9.656;2023-06-01T15:38:37;23.70;98.90
4366;DHT22;2196;47.422;9.656;2023-06-01T15:41:06;23.80;98.40
4366;DHT22;2196;47.422;9.656;2023-06-01T15:43:34;23.80;98.20
4366;DHT22;2196;47.422;9.656;2023-06-01T15:46:03;23.70;97.80
4366;DHT22;2196;47.422;9.656;2023-06-01T15:48:30;23.70;97.70
4366;DHT22;2196;47.422;9.656;2023-06-01T15:50:57;23.70;97.50
4366;DHT22;2196;47.422;9.656;2023-06-01T15:53:24;23.80;97.40
4366;DHT22;2196;47.422;9.656;2023-06-01T15:55:51;24.00;97.70
4366;DHT22;2196;47.422;9.656;2023-06-01T15:58:19;24.00;97.50
4366;DHT22;2196;47.422;9.656;2023-06-01T16:00:46;24.00;97.40
4366;DHT22;2196;47.422;9.656;2023-06-01T16:03:14;24.00;97.50
4366;DHT22;2196;47.422;9.656;2023-06-01T16:05:41;24.10;97.40
4366;DHT22;2196;47.422;9.656;2023-06-01T16:08:08;24.20;97.70
4366;DHT22;2196;47.422;9.656;2023-06-01T16:10:35;24.30;98.90
4366;DHT22;2196;47.422;9.656;2023-06-01T16:13:02;24.30;98.10
4366;DHT22;2196;47.422;9.656;2023-06-01T16:15:29;24.30;98.70
4366;DHT22;2196;47.422;9.656;2023-06-01T16:17:57;24.20;99.40